sensor_id;sensor_type;location;lat;lon;timestamp;P1;durP1;ratioP1;P2;durP2;ratioP2
18142;SDS011;9197;50.930;3.140;2023-03-01T00:01:39;8.00;;;7.00;;
18142;SDS011;9197;50.930;3.140;2023-03-01T00:04:06;8.60;;;7.67;;
18142;SDS011;9197;50.930;3.140;2023-03-01T00:06:34;10.37;;;7.93;;
18142;SDS011;9197;50.930;3.140;2023-03-01T00:09:01;7.10;;;6.40;;
18142;SDS011;9197;50.930;3.140;2023-03-01T00:11:31;7.40;;;6.70;;
18142;SDS011;9197;50.930;3.140;2023-03-01T00:13:59;7.83;;;7.00;;
18142;SDS011;9197;50.930;3.140;2023-03-01T00:16:28;7.63;;;6.90;;
18142;SDS011;9197;50.930;3.140;2023-03-01T00:18:56;11.30;;;7.37;;
18142;SDS011;9197;50.930;3.140;2023-03-01T00:21:23;9.23;;;7.43;;
18142;SDS011;9197;50.930;3.140;2023-03-01T00:23:51;8.27;;;7.00;;
18142;SDS011;9197;50.930;3.140;2023-03-01T00:26:18;9.87;;;6.93;;
18142;SDS011;9197;50.930;3.140;2023-03-01T00:28:47;9.30;;;7.43;;
18142;SDS011;9197;50.930;3.140;2023-03-01T00:31:15;8.57;;;7.73;;
18142;SDS011;9197;50.930;3.140;2023-03-01T00:33:43;8.53;;;6.90;;
18142;SDS011;9197;50.930;3.140;2023-03-01T00:36:12;10.70;;;6.90;;
18142;SDS011;9197;50.930;3.140;2023-03-01T00:38:40;12.23;;;7.87;;
18142;SDS011;9197;50.930;3.140;2023-03-01T00:41:08;10.27;;;7.20;;
18142;SDS011;9197;50.930;3.140;2023-03-01T00:43:36;8.83;;;7.90;;
18142;SDS011;9197;50.930;3.140;2023-03-01T00:46:05;10.90;;;7.50;;
18142;SDS011;9197;50.930;3.140;2023-03-01T00:48:33;9.90;;;7.97;;
18142;SDS011;9197;50.930;3.140;2023-03-01T00:51:04;8.97;;;7.70;;
18142;SDS011;9197;50.930;3.140;2023-03-01T00:53:31;9.23;;;7.80;;
18142;SDS011;9197;50.930;3.140;2023-03-01T00:55:59;9.37;;;7.17;;
18142;SDS011;9197;50.930;3.140;2023-03-01T00:58:26;8.67;;;7.20;;
18142;SDS011;9197;50.930;3.140;2023-03-01T01:00:53;10.13;;;6.97;;
18142;SDS011;9197;50.930;3.140;2023-03-01T01:03:22;8.03;;;7.23;;
18142;SDS011;9197;50.930;3.140;2023-03-01T01:05:50;11.97;;;7.80;;
18142;SDS011;9197;50.930;3.140;2023-03-01T01:08:18;9.27;;;7.60;;
18142;SDS011;9197;50.930;3.140;2023-03-01T01:10:45;8.07;;;6.63;;
18142;SDS011;9197;50.930;3.140;2023-03-01T01:13:12;8.10;;;7.40;;
18142;SDS011;9197;50.930;3.140;2023-03-01T01:15:40;8.33;;;6.77;;
18142;SDS011;9197;50.930;3.140;2023-03-01T01:18:07;9.30;;;8.20;;
18142;SDS011;9197;50.930;3.140;2023-03-01T01:20:36;9.07;;;8.17;;
18142;SDS011;9197;50.930;3.140;2023-03-01T01:23:05;8.77;;;7.90;;
18142;SDS011;9197;50.930;3.140;2023-03-01T01:25:34;9.20;;;7.43;;
18142;SDS011;9197;50.930;3.140;2023-03-01T01:28:02;10.70;;;8.03;;
18142;SDS011;9197;50.930;3.140;2023-03-01T01:30:29;10.17;;;8.20;;
18142;SDS011;9197;50.930;3.140;2023-03-01T01:32:56;8.43;;;7.50;;
18142;SDS011;9197;50.930;3.140;2023-03-01T01:35:23;10.30;;;8.50;;
18142;SDS011;9197;50.930;3.140;2023-03-01T01:37:52;10.13;;;8.90;;
18142;SDS011;9197;50.930;3.140;2023-03-01T01:40:19;10.20;;;8.50;;
18142;SDS011;9197;50.930;3.140;2023-03-01T01:42:47;9.50;;;8.30;;
18142;SDS011;9197;50.930;3.140;2023-03-01T01:45:28;10.67;;;9.17;;
18142;SDS011;9197;50.930;3.140;2023-03-01T01:47:57;11.60;;;9.87;;
18142;SDS011;9197;50.930;3.140;2023-03-01T01:50:26;9.47;;;8.37;;
18142;SDS011;9197;50.930;3.140;2023-03-01T01:53:06;12.33;;;9.03;;
18142;SDS011;9197;50.930;3.140;2023-03-01T01:55:34;13.33;;;9.13;;
18142;SDS011;9197;50.930;3.140;2023-03-01T01:58:04;11.17;;;9.53;;
18142;SDS011;9197;50.930;3.140;2023-03-01T02:00:31;14.93;;;9.37;;
18142;SDS011;9197;50.930;3.140;2023-03-01T02:02:59;13.67;;;10.07;;
18142;SDS011;9197;50.930;3.140;2023-03-01T02:05:29;11.77;;;10.50;;
18142;SDS011;9197;50.930;3.140;2023-03-01T02:07:59;12.10;;;9.57;;
18142;SDS011;9197;50.930;3.140;2023-03-01T02:10:28;9.67;;;8.67;;
18142;SDS011;9197;50.930;3.140;2023-03-01T02:12:56;12.47;;;10.10;;
18142;SDS011;9197;50.930;3.140;2023-03-01T02:15:23;11.00;;;9.83;;
18142;SDS011;9197;50.930;3.140;2023-03-01T02:17:51;12.40;;;10.90;;
18142;SDS011;9197;50.930;3.140;2023-03-01T02:20:20;12.50;;;10.53;;
18142;SDS011;9197;50.930;3.140;2023-03-01T02:22:49;13.23;;;11.47;;
18142;SDS011;9197;50.930;3.140;2023-03-01T02:25:24;15.33;;;10.40;;
18142;SDS011;9197;50.930;3.140;2023-03-01T02:27:53;12.87;;;11.50;;
18142;SDS011;9197;50.930;3.140;2023-03-01T02:30:24;14.17;;;10.90;;
18142;SDS011;9197;50.930;3.140;2023-03-01T02:32:52;14.67;;;11.33;;
18142;SDS011;9197;50.930;3.140;2023-03-01T02:35:21;12.90;;;11.60;;
18142;SDS011;9197;50.930;3.140;2023-03-01T02:37:49;14.33;;;12.87;;
18142;SDS011;9197;50.930;3.140;2023-03-01T02:42:45;15.47;;;12.40;;
18142;SDS011;9197;50.930;3.140;2023-03-01T02:45:14;14.03;;;12.23;;
18142;SDS011;9197;50.930;3.140;2023-03-01T02:47:42;14.37;;;12.87;;
18142;SDS011;9197;50.930;3.140;2023-03-01T02:50:12;18.43;;;12.67;;
18142;SDS011;9197;50.930;3.140;2023-03-01T02:52:43;15.93;;;13.17;;
18142;SDS011;9197;50.930;3.140;2023-03-01T02:55:13;17.50;;;12.93;;
18142;SDS011;9197;50.930;3.140;2023-03-01T02:57:42;17.43;;;13.87;;
18142;SDS011;9197;50.930;3.140;2023-03-01T03:00:11;17.23;;;14.03;;
18142;SDS011;9197;50.930;3.140;2023-03-01T03:02:45;15.77;;;13.00;;
18142;SDS011;9197;50.930;3.140;2023-03-01T03:05:15;15.43;;;13.83;;
18142;SDS011;9197;50.930;3.140;2023-03-01T03:07:43;15.77;;;14.17;;
18142;SDS011;9197;50.930;3.140;2023-03-01T03:10:12;15.33;;;13.07;;
18142;SDS011;9197;50.930;3.140;2023-03-01T03:12:39;17.43;;;13.53;;
18142;SDS011;9197;50.930;3.140;2023-03-01T03:15:08;17.10;;;14.03;;
18142;SDS011;9197;50.930;3.140;2023-03-01T03:17:38;16.50;;;14.77;;
18142;SDS011;9197;50.930;3.140;2023-03-01T03:20:07;17.50;;;15.63;;
18142;SDS011;9197;50.930;3.140;2023-03-01T03:22:36;14.57;;;13.07;;
18142;SDS011;9197;50.930;3.140;2023-03-01T03:25:04;16.40;;;14.27;;
18142;SDS011;9197;50.930;3.140;2023-03-01T03:27:35;17.30;;;13.50;;
18142;SDS011;9197;50.930;3.140;2023-03-01T03:30:03;18.30;;;14.30;;
18142;SDS011;9197;50.930;3.140;2023-03-01T03:32:33;16.23;;;14.40;;
18142;SDS011;9197;50.930;3.140;2023-03-01T03:35:01;20.77;;;15.20;;
18142;SDS011;9197;50.930;3.140;2023-03-01T03:37:35;16.90;;;14.60;;
18142;SDS011;9197;50.930;3.140;2023-03-01T03:40:20;15.83;;;13.67;;
18142;SDS011;9197;50.930;3.140;2023-03-01T03:42:47;18.03;;;15.03;;
18142;SDS011;9197;50.930;3.140;2023-03-01T03:45:14;22.63;;;15.27;;
18142;SDS011;9197;50.930;3.140;2023-03-01T03:47:42;21.40;;;16.10;;
18142;SDS011;9197;50.930;3.140;2023-03-01T03:50:09;19.83;;;16.47;;
18142;SDS011;9197;50.930;3.140;2023-03-01T03:52:38;22.33;;;16.07;;
18142;SDS011;9197;50.930;3.140;2023-03-01T03:55:06;21.47;;;15.63;;
18142;SDS011;9197;50.930;3.140;2023-03-01T03:57:35;19.27;;;15.00;;
18142;SDS011;9197;50.930;3.140;2023-03-01T04:00:03;19.57;;;15.30;;
18142;SDS011;9197;50.930;3.140;2023-03-01T04:02:37;20.00;;;15.37;;
18142;SDS011;9197;50.930;3.140;2023-03-01T04:05:05;17.93;;;14.63;;
18142;SDS011;9197;50.930;3.140;2023-03-01T04:07:33;20.57;;;14.67;;
18142;SDS011;9197;50.930;3.140;2023-03-01T04:10:02;25.00;;;15.80;;
18142;SDS011;9197;50.930;3.140;2023-03-01T04:12:29;17.83;;;14.77;;
18142;SDS011;9197;50.930;3.140;2023-03-01T04:14:59;17.13;;;15.07;;
18142;SDS011;9197;50.930;3.140;2023-03-01T04:17:26;15.77;;;12.93;;
18142;SDS011;9197;50.930;3.140;2023-03-01T04:19:53;17.80;;;14.87;;
18142;SDS011;9197;50.930;3.140;2023-03-01T04:22:20;19.70;;;15.57;;
18142;SDS011;9197;50.930;3.140;2023-03-01T04:24:48;17.90;;;14.50;;
18142;SDS011;9197;50.930;3.140;2023-03-01T04:27:16;18.77;;;13.63;;
18142;SDS011;9197;50.930;3.140;2023-03-01T04:29:44;20.97;;;15.77;;
18142;SDS011;9197;50.930;3.140;2023-03-01T04:32:11;18.53;;;15.13;;
18142;SDS011;9197;50.930;3.140;2023-03-01T04:34:41;17.47;;;15.03;;
18142;SDS011;9197;50.930;3.140;2023-03-01T04:37:08;22.83;;;16.67;;
18142;SDS011;9197;50.930;3.140;2023-03-01T04:39:35;22.93;;;16.53;;
18142;SDS011;9197;50.930;3.140;2023-03-01T04:42:10;17.67;;;14.43;;
18142;SDS011;9197;50.930;3.140;2023-03-01T04:44:39;22.53;;;16.40;;
18142;SDS011;9197;50.930;3.140;2023-03-01T04:47:06;18.73;;;14.57;;
18142;SDS011;9197;50.930;3.140;2023-03-01T04:49:34;19.40;;;15.17;;
18142;SDS011;9197;50.930;3.140;2023-03-01T04:52:01;19.20;;;14.70;;
18142;SDS011;9197;50.930;3.140;2023-03-01T04:54:28;18.57;;;15.13;;
18142;SDS011;9197;50.930;3.140;2023-03-01T04:56:55;18.47;;;14.20;;
18142;SDS011;9197;50.930;3.140;2023-03-01T04:59:23;21.93;;;15.83;;
18142;SDS011;9197;50.930;3.140;2023-03-01T05:01:52;17.73;;;13.90;;
18142;SDS011;9197;50.930;3.140;2023-03-01T05:04:20;21.53;;;15.27;;
18142;SDS011;9197;50.930;3.140;2023-03-01T05:06:47;20.37;;;15.23;;
18142;SDS011;9197;50.930;3.140;2023-03-01T05:09:15;20.10;;;15.67;;
18142;SDS011;9197;50.930;3.140;2023-03-01T05:11:42;19.13;;;15.60;;
18142;SDS011;9197;50.930;3.140;2023-03-01T05:14:09;20.70;;;15.83;;
18142;SDS011;9197;50.930;3.140;2023-03-01T05:16:37;21.40;;;15.30;;
18142;SDS011;9197;50.930;3.140;2023-03-01T05:19:05;18.40;;;16.00;;
18142;SDS011;9197;50.930;3.140;2023-03-01T05:21:40;22.30;;;16.57;;
18142;SDS011;9197;50.930;3.140;2023-03-01T05:24:21;22.53;;;16.37;;
18142;SDS011;9197;50.930;3.140;2023-03-01T05:26:48;19.57;;;16.10;;
18142;SDS011;9197;50.930;3.140;2023-03-01T05:29:17;23.93;;;18.13;;
18142;SDS011;9197;50.930;3.140;2023-03-01T05:31:50;19.40;;;15.97;;
18142;SDS011;9197;50.930;3.140;2023-03-01T05:34:19;21.60;;;16.37;;
18142;SDS011;9197;50.930;3.140;2023-03-01T05:36:48;20.23;;;16.43;;
18142;SDS011;9197;50.930;3.140;2023-03-01T05:39:18;20.50;;;16.47;;
18142;SDS011;9197;50.930;3.140;2023-03-01T05:41:45;21.83;;;15.47;;
18142;SDS011;9197;50.930;3.140;2023-03-01T05:44:12;21.47;;;16.10;;
18142;SDS011;9197;50.930;3.140;2023-03-01T05:46:39;23.20;;;15.37;;
18142;SDS011;9197;50.930;3.140;2023-03-01T05:49:07;20.17;;;16.23;;
18142;SDS011;9197;50.930;3.140;2023-03-01T05:51:35;22.60;;;16.77;;
18142;SDS011;9197;50.930;3.140;2023-03-01T05:54:03;19.67;;;14.77;;
18142;SDS011;9197;50.930;3.140;2023-03-01T05:56:32;22.53;;;15.93;;
18142;SDS011;9197;50.930;3.140;2023-03-01T05:58:59;19.33;;;15.13;;
18142;SDS011;9197;50.930;3.140;2023-03-01T06:01:26;19.07;;;15.60;;
18142;SDS011;9197;50.930;3.140;2023-03-01T06:03:54;17.63;;;14.83;;
18142;SDS011;9197;50.930;3.140;2023-03-01T06:06:21;17.67;;;13.77;;
18142;SDS011;9197;50.930;3.140;2023-03-01T06:08:50;22.67;;;15.33;;
18142;SDS011;9197;50.930;3.140;2023-03-01T06:11:18;17.30;;;13.50;;
18142;SDS011;9197;50.930;3.140;2023-03-01T06:13:45;20.83;;;14.20;;
18142;SDS011;9197;50.930;3.140;2023-03-01T06:16:13;22.63;;;16.03;;
18142;SDS011;9197;50.930;3.140;2023-03-01T06:18:40;20.13;;;14.90;;
18142;SDS011;9197;50.930;3.140;2023-03-01T06:21:08;25.27;;;16.90;;
18142;SDS011;9197;50.930;3.140;2023-03-01T06:23:35;24.83;;;17.37;;
18142;SDS011;9197;50.930;3.140;2023-03-01T06:26:06;31.07;;;17.00;;
18142;SDS011;9197;50.930;3.140;2023-03-01T06:28:33;27.33;;;18.30;;
18142;SDS011;9197;50.930;3.140;2023-03-01T06:31:01;28.20;;;18.53;;
18142;SDS011;9197;50.930;3.140;2023-03-01T06:33:28;25.83;;;17.17;;
18142;SDS011;9197;50.930;3.140;2023-03-01T06:35:56;25.87;;;18.07;;
18142;SDS011;9197;50.930;3.140;2023-03-01T06:38:23;26.03;;;17.77;;
18142;SDS011;9197;50.930;3.140;2023-03-01T06:40:54;29.70;;;17.50;;
18142;SDS011;9197;50.930;3.140;2023-03-01T06:43:23;26.40;;;16.90;;
18142;SDS011;9197;50.930;3.140;2023-03-01T06:45:51;28.43;;;16.67;;
18142;SDS011;9197;50.930;3.140;2023-03-01T06:48:18;27.03;;;16.37;;
18142;SDS011;9197;50.930;3.140;2023-03-01T06:50:45;26.57;;;16.77;;
18142;SDS011;9197;50.930;3.140;2023-03-01T06:53:13;28.47;;;16.47;;
18142;SDS011;9197;50.930;3.140;2023-03-01T06:55:40;31.33;;;19.00;;
18142;SDS011;9197;50.930;3.140;2023-03-01T06:58:08;30.43;;;18.97;;
18142;SDS011;9197;50.930;3.140;2023-03-01T07:00:37;31.13;;;18.03;;
18142;SDS011;9197;50.930;3.140;2023-03-01T07:03:05;32.80;;;16.87;;
18142;SDS011;9197;50.930;3.140;2023-03-01T07:05:33;26.10;;;18.47;;
18142;SDS011;9197;50.930;3.140;2023-03-01T07:08:00;35.20;;;17.80;;
18142;SDS011;9197;50.930;3.140;2023-03-01T07:10:28;28.33;;;17.13;;
18142;SDS011;9197;50.930;3.140;2023-03-01T07:12:56;23.23;;;16.70;;
18142;SDS011;9197;50.930;3.140;2023-03-01T07:15:24;24.77;;;15.93;;
18142;SDS011;9197;50.930;3.140;2023-03-01T07:17:53;18.57;;;15.27;;
18142;SDS011;9197;50.930;3.140;2023-03-01T07:20:20;23.87;;;17.07;;
18142;SDS011;9197;50.930;3.140;2023-03-01T07:22:50;20.57;;;16.47;;
18142;SDS011;9197;50.930;3.140;2023-03-01T07:25:17;20.30;;;16.23;;
18142;SDS011;9197;50.930;3.140;2023-03-01T07:27:48;22.57;;;15.70;;
18142;SDS011;9197;50.930;3.140;2023-03-01T07:30:16;23.97;;;14.17;;
18142;SDS011;9197;50.930;3.140;2023-03-01T07:32:43;19.23;;;13.80;;
18142;SDS011;9197;50.930;3.140;2023-03-01T07:35:12;20.40;;;14.17;;
18142;SDS011;9197;50.930;3.140;2023-03-01T07:37:39;19.40;;;14.43;;
18142;SDS011;9197;50.930;3.140;2023-03-01T07:40:07;21.27;;;13.43;;
18142;SDS011;9197;50.930;3.140;2023-03-01T07:42:35;19.07;;;14.07;;
18142;SDS011;9197;50.930;3.140;2023-03-01T07:45:02;18.23;;;14.03;;
18142;SDS011;9197;50.930;3.140;2023-03-01T07:47:30;22.37;;;14.00;;
18142;SDS011;9197;50.930;3.140;2023-03-01T07:49:57;15.33;;;13.03;;
18142;SDS011;9197;50.930;3.140;2023-03-01T07:52:27;19.17;;;12.83;;
18142;SDS011;9197;50.930;3.140;2023-03-01T07:54:54;23.73;;;12.67;;
18142;SDS011;9197;50.930;3.140;2023-03-01T07:57:22;20.60;;;13.13;;
18142;SDS011;9197;50.930;3.140;2023-03-01T07:59:49;15.70;;;11.93;;
18142;SDS011;9197;50.930;3.140;2023-03-01T08:02:18;18.83;;;11.93;;
18142;SDS011;9197;50.930;3.140;2023-03-01T08:04:45;19.17;;;12.07;;
18142;SDS011;9197;50.930;3.140;2023-03-01T08:07:13;13.67;;;10.30;;
18142;SDS011;9197;50.930;3.140;2023-03-01T08:09:41;11.83;;;9.57;;
18142;SDS011;9197;50.930;3.140;2023-03-01T08:12:09;12.90;;;9.60;;
18142;SDS011;9197;50.930;3.140;2023-03-01T08:14:36;11.47;;;9.70;;
18142;SDS011;9197;50.930;3.140;2023-03-01T08:17:03;12.20;;;8.77;;
18142;SDS011;9197;50.930;3.140;2023-03-01T08:19:30;14.07;;;11.60;;
18142;SDS011;9197;50.930;3.140;2023-03-01T08:21:59;13.57;;;9.03;;
18142;SDS011;9197;50.930;3.140;2023-03-01T08:24:28;10.07;;;8.30;;
18142;SDS011;9197;50.930;3.140;2023-03-01T08:26:56;12.50;;;9.47;;
18142;SDS011;9197;50.930;3.140;2023-03-01T08:29:24;9.17;;;8.27;;
18142;SDS011;9197;50.930;3.140;2023-03-01T08:31:51;10.77;;;9.57;;
18142;SDS011;9197;50.930;3.140;2023-03-01T08:34:19;12.73;;;9.03;;
18142;SDS011;9197;50.930;3.140;2023-03-01T08:36:46;10.02;;;8.57;;
18142;SDS011;9197;50.930;3.140;2023-03-01T08:39:15;10.07;;;9.05;;
18142;SDS011;9197;50.930;3.140;2023-03-01T08:41:44;10.48;;;9.48;;
18142;SDS011;9197;50.930;3.140;2023-03-01T08:44:14;15.80;;;10.43;;
18142;SDS011;9197;50.930;3.140;2023-03-01T08:46:42;9.48;;;8.38;;
18142;SDS011;9197;50.930;3.140;2023-03-01T08:49:11;13.05;;;8.98;;
18142;SDS011;9197;50.930;3.140;2023-03-01T08:51:38;13.13;;;9.15;;
18142;SDS011;9197;50.930;3.140;2023-03-01T08:54:06;12.27;;;9.00;;
18142;SDS011;9197;50.930;3.140;2023-03-01T08:56:34;10.30;;;9.20;;
18142;SDS011;9197;50.930;3.140;2023-03-01T08:59:02;10.60;;;8.75;;
18142;SDS011;9197;50.930;3.140;2023-03-01T09:01:31;8.90;;;8.02;;
18142;SDS011;9197;50.930;3.140;2023-03-01T09:03:58;9.95;;;8.13;;
18142;SDS011;9197;50.930;3.140;2023-03-01T09:06:26;9.85;;;8.10;;
18142;SDS011;9197;50.930;3.140;2023-03-01T09:08:53;9.40;;;7.35;;
18142;SDS011;9197;50.930;3.140;2023-03-01T09:11:24;14.45;;;8.00;;
18142;SDS011;9197;50.930;3.140;2023-03-01T09:13:51;10.32;;;7.15;;
18142;SDS011;9197;50.930;3.140;2023-03-01T09:16:19;8.02;;;7.22;;
18142;SDS011;9197;50.930;3.140;2023-03-01T09:18:50;8.38;;;7.57;;
18142;SDS011;9197;50.930;3.140;2023-03-01T09:21:18;8.15;;;7.28;;
18142;SDS011;9197;50.930;3.140;2023-03-01T09:23:46;11.10;;;8.55;;
18142;SDS011;9197;50.930;3.140;2023-03-01T09:26:15;10.70;;;7.75;;
18142;SDS011;9197;50.930;3.140;2023-03-01T09:28:44;8.43;;;7.50;;
18142;SDS011;9197;50.930;3.140;2023-03-01T09:31:12;8.27;;;7.47;;
18142;SDS011;9197;50.930;3.140;2023-03-01T09:33:40;12.15;;;7.40;;
18142;SDS011;9197;50.930;3.140;2023-03-01T09:36:10;8.55;;;7.63;;
18142;SDS011;9197;50.930;3.140;2023-03-01T09:38:38;7.78;;;6.90;;
18142;SDS011;9197;50.930;3.140;2023-03-01T09:41:09;8.23;;;7.43;;
18142;SDS011;9197;50.930;3.140;2023-03-01T09:43:39;10.70;;;7.25;;
18142;SDS011;9197;50.930;3.140;2023-03-01T09:46:09;8.25;;;6.95;;
18142;SDS011;9197;50.930;3.140;2023-03-01T09:48:38;7.18;;;6.57;;
18142;SDS011;9197;50.930;3.140;2023-03-01T09:51:12;10.83;;;7.43;;
18142;SDS011;9197;50.930;3.140;2023-03-01T09:53:42;9.97;;;6.90;;
18142;SDS011;9197;50.930;3.140;2023-03-01T09:56:11;10.87;;;6.83;;
18142;SDS011;9197;50.930;3.140;2023-03-01T09:58:42;8.80;;;7.17;;
18142;SDS011;9197;50.930;3.140;2023-03-01T10:01:20;7.27;;;6.23;;
18142;SDS011;9197;50.930;3.140;2023-03-01T10:03:57;7.00;;;5.77;;
18142;SDS011;9197;50.930;3.140;2023-03-01T10:06:28;6.43;;;5.83;;
18142;SDS011;9197;50.930;3.140;2023-03-01T10:08:56;7.03;;;6.13;;
18142;SDS011;9197;50.930;3.140;2023-03-01T10:11:24;7.57;;;5.73;;
18142;SDS011;9197;50.930;3.140;2023-03-01T10:13:55;7.87;;;5.50;;
18142;SDS011;9197;50.930;3.140;2023-03-01T10:16:26;12.13;;;5.10;;
18142;SDS011;9197;50.930;3.140;2023-03-01T10:18:55;18.17;;;7.17;;
18142;SDS011;9197;50.930;3.140;2023-03-01T10:21:25;7.67;;;5.03;;
18142;SDS011;9197;50.930;3.140;2023-03-01T10:23:54;9.83;;;6.47;;
18142;SDS011;9197;50.930;3.140;2023-03-01T10:26:25;9.30;;;5.50;;
18142;SDS011;9197;50.930;3.140;2023-03-01T10:28:58;6.13;;;3.93;;
18142;SDS011;9197;50.930;3.140;2023-03-01T10:31:27;5.03;;;4.30;;
18142;SDS011;9197;50.930;3.140;2023-03-01T10:34:02;7.00;;;4.40;;
18142;SDS011;9197;50.930;3.140;2023-03-01T10:36:29;4.37;;;3.97;;
18142;SDS011;9197;50.930;3.140;2023-03-01T10:39:01;12.93;;;4.70;;
18142;SDS011;9197;50.930;3.140;2023-03-01T10:41:30;5.13;;;4.63;;
18142;SDS011;9197;50.930;3.140;2023-03-01T10:43:58;7.07;;;4.93;;
18142;SDS011;9197;50.930;3.140;2023-03-01T10:46:26;4.10;;;2.97;;
18142;SDS011;9197;50.930;3.140;2023-03-01T10:49:07;4.30;;;3.30;;
18142;SDS011;9197;50.930;3.140;2023-03-01T10:51:39;6.57;;;4.83;;
18142;SDS011;9197;50.930;3.140;2023-03-01T10:54:15;5.03;;;3.83;;
18142;SDS011;9197;50.930;3.140;2023-03-01T10:56:46;10.63;;;4.23;;
18142;SDS011;9197;50.930;3.140;2023-03-01T10:59:20;10.40;;;4.90;;
18142;SDS011;9197;50.930;3.140;2023-03-01T11:01:52;11.00;;;5.30;;
18142;SDS011;9197;50.930;3.140;2023-03-01T11:04:27;8.17;;;4.57;;
18142;SDS011;9197;50.930;3.140;2023-03-01T11:06:58;6.43;;;4.93;;
18142;SDS011;9197;50.930;3.140;2023-03-01T11:09:30;8.80;;;4.63;;
18142;SDS011;9197;50.930;3.140;2023-03-01T11:12:03;5.50;;;4.70;;
18142;SDS011;9197;50.930;3.140;2023-03-01T11:14:33;8.00;;;4.27;;
18142;SDS011;9197;50.930;3.140;2023-03-01T11:17:02;9.27;;;4.10;;
18142;SDS011;9197;50.930;3.140;2023-03-01T11:19:30;5.23;;;4.73;;
18142;SDS011;9197;50.930;3.140;2023-03-01T11:21:59;5.97;;;4.90;;
18142;SDS011;9197;50.930;3.140;2023-03-01T11:24:32;6.37;;;4.57;;
18142;SDS011;9197;50.930;3.140;2023-03-01T11:27:02;5.70;;;3.63;;
18142;SDS011;9197;50.930;3.140;2023-03-01T11:29:31;5.47;;;3.70;;
18142;SDS011;9197;50.930;3.140;2023-03-01T11:32:01;5.13;;;4.57;;
18142;SDS011;9197;50.930;3.140;2023-03-01T11:34:35;6.93;;;4.40;;
18142;SDS011;9197;50.930;3.140;2023-03-01T11:37:08;7.67;;;5.23;;
18142;SDS011;9197;50.930;3.140;2023-03-01T11:39:39;6.13;;;4.50;;
18142;SDS011;9197;50.930;3.140;2023-03-01T11:42:10;7.67;;;4.87;;
18142;SDS011;9197;50.930;3.140;2023-03-01T11:44:38;6.07;;;4.50;;
18142;SDS011;9197;50.930;3.140;2023-03-01T11:47:10;5.97;;;4.80;;
18142;SDS011;9197;50.930;3.140;2023-03-01T11:49:44;17.73;;;5.73;;
18142;SDS011;9197;50.930;3.140;2023-03-01T11:52:16;20.10;;;6.50;;
18142;SDS011;9197;50.930;3.140;2023-03-01T11:54:50;11.93;;;5.23;;
18142;SDS011;9197;50.930;3.140;2023-03-01T11:57:30;8.87;;;5.30;;
18142;SDS011;9197;50.930;3.140;2023-03-01T12:00:12;19.43;;;7.03;;
18142;SDS011;9197;50.930;3.140;2023-03-01T12:08:14;5.40;;;4.57;;
18142;SDS011;9197;50.930;3.140;2023-03-01T12:10:47;8.30;;;4.77;;
18142;SDS011;9197;50.930;3.140;2023-03-01T12:13:23;4.47;;;4.07;;
18142;SDS011;9197;50.930;3.140;2023-03-01T12:15:58;16.80;;;5.67;;
18142;SDS011;9197;50.930;3.140;2023-03-01T12:18:35;4.17;;;3.83;;
18142;SDS011;9197;50.930;3.140;2023-03-01T12:21:08;6.87;;;4.47;;
18142;SDS011;9197;50.930;3.140;2023-03-01T12:26:30;4.53;;;4.13;;
18142;SDS011;9197;50.930;3.140;2023-03-01T12:29:02;7.07;;;5.10;;
18142;SDS011;9197;50.930;3.140;2023-03-01T12:31:37;19.17;;;6.27;;
18142;SDS011;9197;50.930;3.140;2023-03-01T12:34:14;19.53;;;6.20;;
18142;SDS011;9197;50.930;3.140;2023-03-01T12:39:36;4.67;;;4.03;;
18142;SDS011;9197;50.930;3.140;2023-03-01T12:42:10;8.20;;;4.93;;
18142;SDS011;9197;50.930;3.140;2023-03-01T12:44:48;7.63;;;4.20;;
18142;SDS011;9197;50.930;3.140;2023-03-01T12:47:26;5.87;;;4.47;;
18142;SDS011;9197;50.930;3.140;2023-03-01T12:50:00;8.67;;;4.90;;
18142;SDS011;9197;50.930;3.140;2023-03-01T12:52:31;6.73;;;5.00;;
18142;SDS011;9197;50.930;3.140;2023-03-01T12:55:00;8.20;;;4.90;;
18142;SDS011;9197;50.930;3.140;2023-03-01T12:57:30;6.70;;;4.93;;
18142;SDS011;9197;50.930;3.140;2023-03-01T13:00:05;9.33;;;5.43;;
18142;SDS011;9197;50.930;3.140;2023-03-01T13:02:35;11.40;;;4.87;;
18142;SDS011;9197;50.930;3.140;2023-03-01T13:05:10;7.10;;;4.40;;
18142;SDS011;9197;50.930;3.140;2023-03-01T13:07:49;6.80;;;5.37;;
18142;SDS011;9197;50.930;3.140;2023-03-01T13:10:21;5.33;;;4.83;;
18142;SDS011;9197;50.930;3.140;2023-03-01T13:13:00;6.00;;;4.30;;
18142;SDS011;9197;50.930;3.140;2023-03-01T13:15:29;14.77;;;5.53;;
18142;SDS011;9197;50.930;3.140;2023-03-01T13:17:57;13.27;;;6.77;;
18142;SDS011;9197;50.930;3.140;2023-03-01T13:20:25;7.37;;;4.83;;
18142;SDS011;9197;50.930;3.140;2023-03-01T13:23:01;20.57;;;6.53;;
18142;SDS011;9197;50.930;3.140;2023-03-01T13:25:28;4.70;;;3.97;;
18142;SDS011;9197;50.930;3.140;2023-03-01T13:30:41;13.07;;;6.43;;
18142;SDS011;9197;50.930;3.140;2023-03-01T13:33:33;21.73;;;6.60;;
18142;SDS011;9197;50.930;3.140;2023-03-01T13:36:01;6.40;;;4.43;;
18142;SDS011;9197;50.930;3.140;2023-03-01T13:38:39;6.97;;;4.60;;
18142;SDS011;9197;50.930;3.140;2023-03-01T13:41:11;5.63;;;4.60;;
18142;SDS011;9197;50.930;3.140;2023-03-01T13:43:39;6.13;;;4.20;;
18142;SDS011;9197;50.930;3.140;2023-03-01T13:46:10;6.83;;;4.70;;
18142;SDS011;9197;50.930;3.140;2023-03-01T13:48:38;7.00;;;4.30;;
18142;SDS011;9197;50.930;3.140;2023-03-01T13:51:07;6.43;;;4.70;;
18142;SDS011;9197;50.930;3.140;2023-03-01T13:53:36;6.20;;;4.90;;
18142;SDS011;9197;50.930;3.140;2023-03-01T13:56:06;5.60;;;4.83;;
18142;SDS011;9197;50.930;3.140;2023-03-01T13:58:43;4.83;;;4.33;;
18142;SDS011;9197;50.930;3.140;2023-03-01T14:01:20;6.27;;;5.00;;
18142;SDS011;9197;50.930;3.140;2023-03-01T14:03:47;9.00;;;4.83;;
18142;SDS011;9197;50.930;3.140;2023-03-01T14:06:16;6.17;;;4.87;;
18142;SDS011;9197;50.930;3.140;2023-03-01T14:08:44;5.23;;;4.33;;
18142;SDS011;9197;50.930;3.140;2023-03-01T14:11:23;5.80;;;4.90;;
18142;SDS011;9197;50.930;3.140;2023-03-01T14:13:58;6.10;;;4.30;;
18142;SDS011;9197;50.930;3.140;2023-03-01T14:16:32;8.17;;;5.07;;
18142;SDS011;9197;50.930;3.140;2023-03-01T14:19:06;6.83;;;4.67;;
18142;SDS011;9197;50.930;3.140;2023-03-01T14:21:36;6.17;;;4.67;;
18142;SDS011;9197;50.930;3.140;2023-03-01T14:24:03;4.43;;;3.90;;
18142;SDS011;9197;50.930;3.140;2023-03-01T14:26:30;4.93;;;4.20;;
18142;SDS011;9197;50.930;3.140;2023-03-01T14:28:58;5.10;;;4.30;;
18142;SDS011;9197;50.930;3.140;2023-03-01T14:31:34;8.13;;;4.30;;
18142;SDS011;9197;50.930;3.140;2023-03-01T14:34:01;5.90;;;5.00;;
18142;SDS011;9197;50.930;3.140;2023-03-01T14:36:29;5.60;;;4.50;;
18142;SDS011;9197;50.930;3.140;2023-03-01T14:38:57;6.33;;;4.33;;
18142;SDS011;9197;50.930;3.140;2023-03-01T14:41:30;6.53;;;4.77;;
18142;SDS011;9197;50.930;3.140;2023-03-01T14:43:59;6.07;;;5.47;;
18142;SDS011;9197;50.930;3.140;2023-03-01T14:46:28;7.40;;;4.53;;
18142;SDS011;9197;50.930;3.140;2023-03-01T14:49:01;6.13;;;4.30;;
18142;SDS011;9197;50.930;3.140;2023-03-01T14:51:28;6.10;;;5.07;;
18142;SDS011;9197;50.930;3.140;2023-03-01T14:53:56;4.83;;;4.13;;
18142;SDS011;9197;50.930;3.140;2023-03-01T14:56:24;7.63;;;4.43;;
18142;SDS011;9197;50.930;3.140;2023-03-01T14:58:51;4.97;;;4.13;;
18142;SDS011;9197;50.930;3.140;2023-03-01T15:01:19;7.43;;;4.20;;
18142;SDS011;9197;50.930;3.140;2023-03-01T15:03:47;8.10;;;4.67;;
18142;SDS011;9197;50.930;3.140;2023-03-01T15:06:17;5.07;;;4.47;;
18142;SDS011;9197;50.930;3.140;2023-03-01T15:08:48;6.67;;;4.50;;
18142;SDS011;9197;50.930;3.140;2023-03-01T15:11:17;5.43;;;4.83;;
18142;SDS011;9197;50.930;3.140;2023-03-01T15:13:48;5.53;;;4.70;;
18142;SDS011;9197;50.930;3.140;2023-03-01T15:16:15;7.70;;;4.00;;
18142;SDS011;9197;50.930;3.140;2023-03-01T15:18:44;6.60;;;4.67;;